Alpena, South Dakota
Current Conditions -  °F | °C
As of 8:55 PM on Saturday 22 Nov 2014 (Local Time) from KHON Reporting Station
Clear Clear  
Wind Chill:   Ceiling: Unl
Heat Index:   Visibility: 10mi
Dew Point:   Wind: 5mph
Humidity: 79%   Direction: 210°SSW
Pressure: 29.41"   Gusts: NA
Location:  44.18°N, 98.37°W
Report Text: KHON 230255Z AUTO 21004KT 10SM CLR 03/00 A2941 RMK AO2 SLP972 T00330000 51004
Loading
Personal Weather Stations






























Interactive Weather Map New forecast layout! Learn more

10-Day Weather Forecast

Advertisements
Track Severe Weather on mobile